Time;durP1;ratioP1;P1;durP2;ratioP2;P2;SDS_P1;SDS_P2;PMS_P1;PMS_P2;Temp;Humidity;BMP_temperature;BMP_pressure;BME280_temperature;BME280_humidity;BME280_pressure;Samples;Min_cycle;Max_cycle;Signal;HPM_P1;HPM_P2
2022/09/11 00:01:21;;;;;;;1.20;0.95;;;;;;;14.95;72.96;92956.22;2052941;70;20142;-74
2022/09/11 00:03:48;;;;;;;3.90;1.00;;;;;;;14.98;72.09;92952.13;2053062;70;20147;-74
2022/09/11 00:06:21;;;;;;;2.25;0.90;;;;;;;14.90;72.96;92942.47;2051760;70;20149;-74
2022/09/11 00:08:52;;;;;;;2.15;1.00;;;;;;;14.85;72.35;92946.50;2049929;70;20197;-74
2022/09/11 00:11:20;;;;;;;1.50;0.90;;;;;;;14.79;74.42;92946.91;2052737;70;20177;-75
2022/09/11 00:13:50;;;;;;;3.63;0.80;;;;;;;14.84;73.33;92936.50;2053681;70;20233;-74
2022/09/11 00:16:21;;;;;;;1.50;0.90;;;;;;;14.88;73.42;92937.44;2052683;70;20138;-74
2022/09/11 00:18:48;;;;;;;1.35;0.77;;;;;;;14.83;74.10;92927.25;2050557;70;20190;-74
2022/09/11 00:21:14;;;;;;;2.78;0.70;;;;;;;14.85;73.59;92921.72;2046855;70;20521;-73
2022/09/11 00:23:41;;;;;;;1.80;0.90;;;;;;;14.83;73.69;92918.75;2050472;70;20233;-74
2022/09/11 00:26:08;;;;;;;3.08;0.60;;;;;;;14.87;72.52;92916.13;2051099;70;20252;-74
2022/09/11 00:28:35;;;;;;;1.00;0.60;;;;;;;14.74;73.54;92919.72;2053009;69;20177;-74
2022/09/11 00:31:33;;;;;;;1.60;0.50;;;;;;;14.84;73.27;92911.00;2051464;70;20182;-75
2022/09/11 00:33:59;;;;;;;1.27;0.70;;;;;;;14.77;72.92;92912.81;2050176;70;20134;-74
2022/09/11 00:36:30;;;;;;;1.13;0.70;;;;;;;14.83;72.94;92909.53;2051480;70;20517;-75
2022/09/11 00:38:57;;;;;;;1.77;0.77;;;;;;;14.78;73.14;92916.38;2051117;70;20146;-75
2022/09/11 00:41:37;;;;;;;1.52;0.60;;;;;;;14.82;72.04;92922.25;2049864;70;20676;-76
2022/09/11 00:44:27;;;;;;;0.85;0.50;;;;;;;14.73;73.26;92930.34;2053568;70;20158;-75
2022/09/11 00:47:04;;;;;;;2.00;0.50;;;;;;;14.78;72.62;92930.53;2046033;70;20222;-74
2022/09/11 00:49:33;;;;;;;2.25;0.95;;;;;;;14.74;72.82;92931.06;2048086;70;20178;-74
2022/09/11 00:52:11;;;;;;;1.33;0.82;;;;;;;14.69;73.96;92929.41;2046078;70;20155;-74
2022/09/11 00:54:55;;;;;;;4.32;0.80;;;;;;;14.70;73.21;92928.75;2047174;70;20162;-74
2022/09/11 00:57:25;;;;;;;2.47;1.08;;;;;;;14.78;71.51;92934.09;2049535;70;20134;-74
2022/09/11 00:59:54;;;;;;;3.25;1.10;;;;;;;14.28;75.14;92921.69;2046965;70;20165;-73
2022/09/11 01:02:22;;;;;;;2.10;1.42;;;;;;;14.39;74.38;92920.13;2047839;70;20178;-74
2022/09/11 01:04:49;;;;;;;3.67;1.30;;;;;;;14.47;74.91;92923.34;2046190;70;20290;-75
2022/09/11 01:07:16;;;;;;;4.47;1.42;;;;;;;14.56;74.67;92927.34;2047206;70;20154;-74
2022/09/11 01:09:42;;;;;;;4.40;1.30;;;;;;;14.58;74.36;92922.50;2047968;70;20154;-74
2022/09/11 01:15:46;;;;;;;3.22;0.90;;;;;;;14.55;74.26;92929.44;2049507;70;20173;-74
2022/09/11 01:18:25;;;;;;;2.58;1.00;;;;;;;14.53;74.18;92931.44;2049632;70;20193;-75
2022/09/11 01:21:17;;;;;;;5.38;0.80;;;;;;;14.43;74.71;92929.56;2050340;70;20162;-75
2022/09/11 01:24:15;;;;;;;3.03;0.75;;;;;;;14.48;73.89;92931.25;2049315;70;20206;-74
2022/09/11 01:27:15;;;;;;;7.20;1.13;;;;;;;14.40;74.02;92930.81;2048089;70;20907;-74
2022/09/11 01:29:47;;;;;;;2.55;0.80;;;;;;;14.47;73.83;92935.41;2043321;70;20756;-74
2022/09/11 01:32:20;;;;;;;1.35;0.80;;;;;;;14.43;74.06;92926.72;2046538;70;20151;-74
2022/09/11 01:35:00;;;;;;;2.13;0.73;;;;;;;14.51;74.01;92939.84;2047149;70;20154;-75
2022/09/11 01:37:59;;;;;;;1.90;0.95;;;;;;;14.18;75.78;92938.16;2045669;70;20668;-74
2022/09/11 01:40:30;;;;;;;4.18;1.20;;;;;;;14.00;77.52;92926.63;2043340;70;20282;-74
2022/09/11 01:43:05;;;;;;;3.05;1.00;;;;;;;14.28;75.42;92940.78;2040430;70;20746;-73
2022/09/11 01:45:36;;;;;;;2.92;1.13;;;;;;;14.32;75.28;92933.22;2046300;70;20178;-74
2022/09/11 01:48:03;;;;;;;1.73;1.00;;;;;;;14.31;76.01;92928.19;2049422;70;20133;-74
2022/09/11 01:50:32;;;;;;;6.75;1.30;;;;;;;14.36;74.96;92929.88;2046358;70;20213;-73
2022/09/11 01:53:02;;;;;;;2.47;1.10;;;;;;;14.42;74.59;92930.91;2046729;70;20181;-73
2022/09/11 01:55:43;;;;;;;2.50;0.90;;;;;;;14.42;75.04;92928.06;2053606;70;20188;-73
2022/09/11 01:58:27;;;;;;;1.45;0.90;;;;;;;14.39;74.71;92926.50;2049152;70;20184;-73
2022/09/11 02:01:03;;;;;;;1.30;0.90;;;;;;;14.38;75.35;92930.69;2049915;70;20625;-74
2022/09/11 02:03:35;;;;;;;1.70;1.10;;;;;;;14.43;74.65;92935.22;2048814;70;20154;-74
2022/09/11 02:06:27;;;;;;;2.33;1.20;;;;;;;14.45;74.52;92932.47;2053467;70;20202;-73
2022/09/11 02:08:59;;;;;;;3.80;1.00;;;;;;;14.43;74.49;92926.72;2047792;70;20151;-74
2022/09/11 02:11:31;;;;;;;2.10;0.88;;;;;;;14.41;74.49;92925.88;2053279;70;20130;-73
2022/09/11 02:14:04;;;;;;;4.82;1.00;;;;;;;14.43;74.40;92932.38;2049866;70;20157;-74
2022/09/11 02:16:51;;;;;;;2.15;0.75;;;;;;;14.38;74.83;92932.78;2048638;70;20177;-74
2022/09/11 02:19:23;;;;;;;0.80;0.80;;;;;;;14.30;75.29;92927.47;2054137;70;20307;-75
2022/09/11 02:21:49;;;;;;;3.42;1.10;;;;;;;14.30;75.96;92926.75;2051167;70;20254;-74
2022/09/11 02:24:17;;;;;;;1.95;0.82;;;;;;;14.38;74.98;92929.97;2053891;70;20138;-75
2022/09/11 02:26:51;;;;;;;2.67;0.98;;;;;;;14.39;75.12;92940.69;2050655;70;20169;-75
2022/09/11 02:29:17;;;;;;;6.17;0.93;;;;;;;14.35;74.33;92936.91;2050759;70;20150;-75
2022/09/11 02:31:44;;;;;;;0.90;0.70;;;;;;;14.37;74.83;92934.91;2049376;70;20277;-76
2022/09/11 02:34:12;;;;;;;3.92;0.77;;;;;;;14.32;74.59;92930.38;2050467;69;20189;-74
2022/09/11 02:36:59;;;;;;;1.83;0.70;;;;;;;14.39;73.58;92931.44;2050366;70;20598;-76
2022/09/11 02:39:34;;;;;;;2.60;0.90;;;;;;;14.40;73.71;92927.97;2047160;70;20139;-75
2022/09/11 02:42:06;;;;;;;1.67;0.80;;;;;;;14.30;74.70;92926.75;2050141;70;20244;-76
2022/09/11 02:44:39;;;;;;;2.23;0.70;;;;;;;14.36;73.57;92915.72;2048431;70;20625;-75
2022/09/11 02:47:18;;;;;;;1.38;0.68;;;;;;;14.32;73.69;92907.72;2045803;70;20268;-75
2022/09/11 02:49:57;;;;;;;1.35;0.70;;;;;;;14.28;74.71;92906.81;2050869;70;20666;-74
2022/09/11 02:53:02;;;;;;;1.80;0.70;;;;;;;14.20;75.07;92905.03;2046704;70;20168;-74
2022/09/11 02:55:37;;;;;;;3.00;0.80;;;;;;;14.15;74.14;92896.94;2050646;70;20196;-75
2022/09/11 02:58:19;;;;;;;1.08;0.60;;;;;;;14.05;74.56;92902.84;2046708;70;20547;-75
2022/09/11 03:00:46;;;;;;;3.08;0.57;;;;;;;14.12;73.34;92904.63;2045855;70;20248;-75
2022/09/11 03:03:14;;;;;;;2.88;0.60;;;;;;;13.99;74.80;92911.03;2044815;70;20310;-75
2022/09/11 03:05:42;;;;;;;1.02;0.50;;;;;;;14.10;73.27;92912.25;2044350;70;20517;-75
2022/09/11 03:08:07;;;;;;;1.42;0.70;;;;;;;13.98;74.79;92909.56;2043951;70;20193;-73
2022/09/11 03:10:33;;;;;;;0.68;0.57;;;;;;;13.95;73.86;92920.03;2049374;70;20610;-74
2022/09/11 03:12:59;;;;;;;1.65;0.70;;;;;;;13.96;73.85;92917.94;2043912;70;20154;-75
2022/09/11 03:15:25;;;;;;;3.63;0.80;;;;;;;14.01;73.23;92913.22;2044479;70;20599;-75
2022/09/11 03:17:51;;;;;;;2.63;0.80;;;;;;;13.99;73.92;92925.91;2044161;70;20594;-74
2022/09/11 03:20:19;;;;;;;1.50;0.70;;;;;;;14.01;74.22;92925.25;2044221;70;20143;-74
2022/09/11 03:22:45;;;;;;;2.58;0.90;;;;;;;13.96;74.56;92915.09;2044567;70;20215;-75
2022/09/11 03:25:11;;;;;;;3.28;1.15;;;;;;;13.96;74.94;92924.31;2044910;70;20197;-74
2022/09/11 03:27:40;;;;;;;3.63;0.77;;;;;;;14.03;74.21;92921.81;2049618;70;20189;-75
2022/09/11 03:30:08;;;;;;;2.17;0.82;;;;;;;14.03;74.31;92922.56;2047452;70;20632;-74
2022/09/11 03:32:33;;;;;;;5.30;0.60;;;;;;;13.97;75.02;92919.38;2049026;70;20606;-75
2022/09/11 03:35:00;;;;;;;5.00;0.70;;;;;;;14.10;73.55;92927.16;2048542;70;20153;-75
2022/09/11 03:37:26;;;;;;;2.85;0.80;;;;;;;14.01;74.53;92928.09;2050150;70;20146;-76
2022/09/11 03:39:53;;;;;;;0.88;0.60;;;;;;;14.03;74.53;92919.72;2044366;70;20532;-75
2022/09/11 03:42:21;;;;;;;2.58;0.77;;;;;;;14.12;73.20;92912.38;2045815;70;20534;-75
2022/09/11 03:44:46;;;;;;;3.83;0.77;;;;;;;14.18;72.28;92915.50;2044807;70;20154;-75
2022/09/11 03:47:12;;;;;;;1.55;0.70;;;;;;;14.00;75.67;92909.66;2044306;70;20158;-75
2022/09/11 03:49:38;;;;;;;3.85;0.77;;;;;;;14.04;75.21;92918.34;2046853;70;20201;-74
2022/09/11 03:52:04;;;;;;;3.55;0.88;;;;;;;14.01;74.90;92908.28;2047619;70;20183;-74
2022/09/11 03:54:31;;;;;;;1.67;0.70;;;;;;;14.01;75.21;92918.88;2050960;70;20158;-74
2022/09/11 03:56:57;;;;;;;3.60;0.60;;;;;;;14.09;73.77;92922.13;2049668;70;20150;-75
2022/09/11 03:59:25;;;;;;;2.60;0.68;;;;;;;14.06;73.62;92914.88;2046912;70;20146;-74
2022/09/11 04:01:51;;;;;;;1.63;0.68;;;;;;;14.03;73.90;92916.16;2047465;70;20216;-74
2022/09/11 04:04:17;;;;;;;2.67;0.90;;;;;;;14.00;75.05;92918.16;2047106;70;20209;-74
2022/09/11 04:06:43;;;;;;;0.98;0.60;;;;;;;14.00;74.73;92923.81;2047328;70;20153;-74
2022/09/11 04:09:09;;;;;;;2.53;0.88;;;;;;;13.96;75.21;92915.09;2044799;70;20178;-75
2022/09/11 04:11:37;;;;;;;2.45;0.80;;;;;;;13.97;74.96;92910.91;2048537;70;20154;-75
2022/09/11 04:14:07;;;;;;;3.38;0.85;;;;;;;13.99;74.64;92911.75;2047872;70;20170;-75
2022/09/11 04:16:35;;;;;;;2.25;0.70;;;;;;;13.96;75.01;92910.16;2050772;70;20288;-75
2022/09/11 04:19:01;;;;;;;3.65;0.90;;;;;;;13.96;74.05;92907.34;2050645;70;20158;-74
2022/09/11 04:21:28;;;;;;;4.13;1.35;;;;;;;13.96;75.02;92900.94;2053708;69;20577;-74
2022/09/11 04:23:55;;;;;;;2.45;0.50;;;;;;;13.95;74.51;92910.81;2053331;70;20661;-74
2022/09/11 04:26:24;;;;;;;1.02;0.65;;;;;;;13.92;74.81;92909.22;2052802;70;20139;-75
2022/09/11 04:28:53;;;;;;;3.42;0.65;;;;;;;13.93;75.16;92902.22;2052714;69;20463;-76
2022/09/11 04:31:19;;;;;;;5.80;0.80;;;;;;;13.96;75.08;92917.94;2053624;69;20175;-75
2022/09/11 04:33:46;;;;;;;2.20;0.77;;;;;;;13.87;75.52;92911.13;2052372;70;20225;-76
2022/09/11 04:36:18;;;;;;;0.77;0.60;;;;;;;13.93;74.78;92919.22;2048204;70;20161;-75
2022/09/11 04:38:44;;;;;;;1.15;0.80;;;;;;;13.89;75.08;92910.50;2047719;70;20157;-75
2022/09/11 04:41:12;;;;;;;2.17;0.85;;;;;;;13.88;74.86;92912.59;2047463;70;20165;-75
2022/09/11 04:43:39;;;;;;;1.38;0.80;;;;;;;13.81;75.71;92907.25;2049382;70;20184;-76
2022/09/11 04:46:11;;;;;;;3.90;0.70;;;;;;;13.84;74.74;92920.16;2050849;70;20142;-76
2022/09/11 04:48:42;;;;;;;1.38;0.70;;;;;;;13.66;75.66;92914.25;2050976;70;20138;-76
2022/09/11 04:51:08;;;;;;;2.25;0.80;;;;;;;13.78;74.37;92922.63;2049380;70;20704;-75
2022/09/11 04:53:37;;;;;;;0.55;0.50;;;;;;;13.70;75.08;92917.31;2048242;70;20195;-76
2022/09/11 04:56:13;;;;;;;1.48;0.57;;;;;;;13.77;73.82;92919.09;2053597;70;20142;-75
2022/09/11 04:58:44;;;;;;;1.50;0.85;;;;;;;13.80;73.77;92920.66;2050967;70;20173;-75
2022/09/11 05:01:14;;;;;;;1.17;0.60;;;;;;;13.79;73.50;92912.78;2049943;70;20241;-75
2022/09/11 05:03:42;;;;;;;2.75;0.80;;;;;;;13.73;74.34;92916.75;2053535;69;20260;-76
2022/09/11 05:06:15;;;;;;;0.73;0.40;;;;;;;13.80;73.54;92922.75;2047343;70;20197;-74
2022/09/11 05:08:44;;;;;;;2.65;0.57;;;;;;;13.78;74.14;92926.19;2047802;70;20157;-75
2022/09/11 05:11:15;;;;;;;2.03;1.02;;;;;;;13.44;76.86;92922.28;2051681;70;20181;-75
2022/09/11 05:13:42;;;;;;;1.40;0.90;;;;;;;13.61;75.77;92933.13;2049456;70;20253;-76
2022/09/11 05:16:10;;;;;;;5.35;0.90;;;;;;;13.63;75.88;92927.56;2052710;69;20135;-75
2022/09/11 05:18:37;;;;;;;0.73;0.73;;;;;;;13.71;74.68;92930.09;2049337;70;20143;-75
2022/09/11 05:21:06;;;;;;;1.67;0.80;;;;;;;13.67;75.97;92935.53;2053267;69;20154;-75
2022/09/11 05:23:33;;;;;;;5.90;0.98;;;;;;;13.67;75.78;92938.34;2046190;70;20142;-75
2022/09/11 05:26:01;;;;;;;2.15;0.68;;;;;;;13.68;75.50;92942.66;2048682;70;20134;-75
2022/09/11 05:28:28;;;;;;;3.03;0.70;;;;;;;13.68;75.34;92932.06;2050320;70;20232;-74
2022/09/11 05:30:56;;;;;;;2.22;0.77;;;;;;;13.78;74.35;92943.19;2053091;69;20221;-74
2022/09/11 05:33:23;;;;;;;1.58;1.00;;;;;;;13.69;75.67;92944.84;2051440;70;20182;-74
2022/09/11 05:35:54;;;;;;;2.47;0.70;;;;;;;13.63;76.91;92953.00;2052239;70;20285;-74
2022/09/11 05:38:23;;;;;;;1.83;0.80;;;;;;;13.78;74.94;92956.59;2051300;70;20624;-74
2022/09/11 05:40:51;;;;;;;2.25;0.65;;;;;;;13.81;75.61;92963.84;2051366;70;20645;-75
2022/09/11 05:43:19;;;;;;;0.80;0.60;;;;;;;13.87;74.96;92961.31;2048945;70;20184;-75
2022/09/11 05:45:55;;;;;;;3.95;0.98;;;;;;;13.93;74.97;92973.72;2048066;70;20150;-74
2022/09/11 05:48:21;;;;;;;2.85;1.17;;;;;;;14.00;72.63;92966.25;2050275;70;20258;-74
2022/09/11 05:50:58;;;;;;;2.53;1.20;;;;;;;13.95;74.17;92968.16;2049486;70;20562;-75
2022/09/11 05:53:26;;;;;;;1.90;1.05;;;;;;;13.98;73.97;92966.91;2048107;70;20161;-75
2022/09/11 05:55:56;;;;;;;5.55;1.52;;;;;;;13.99;74.26;92970.47;2047695;70;20318;-75
2022/09/11 05:58:22;;;;;;;3.90;1.67;;;;;;;14.03;74.71;92965.00;2054186;70;20150;-75
2022/09/11 06:00:48;;;;;;;2.75;1.65;;;;;;;14.07;74.86;92967.31;2051137;70;20245;-75
2022/09/11 06:03:16;;;;;;;2.72;1.55;;;;;;;14.15;74.36;92970.56;2048308;70;20218;-74
2022/09/11 06:05:43;;;;;;;1.80;1.27;;;;;;;14.26;74.87;92981.06;2046899;70;20180;-74
2022/09/11 06:08:10;;;;;;;2.50;2.00;;;;;;;14.26;75.18;92983.16;2049963;70;20233;-75
2022/09/11 06:10:45;;;;;;;4.95;2.97;;;;;;;14.23;74.28;92982.31;2051258;70;20170;-75
2022/09/11 06:13:16;;;;;;;3.80;2.60;;;;;;;14.34;72.37;92989.22;2047095;70;20249;-76
2022/09/11 06:15:47;;;;;;;2.80;2.00;;;;;;;14.40;74.02;92998.78;2052693;70;20157;-75
2022/09/11 06:18:15;;;;;;;8.85;3.05;;;;;;;14.46;72.64;92998.34;2045669;70;20150;-74
2022/09/11 06:20:41;;;;;;;3.55;2.53;;;;;;;14.46;75.28;93001.91;2048032;70;20242;-75
2022/09/11 06:23:12;;;;;;;19.40;12.93;;;;;;;14.45;74.45;92989.13;2047686;70;20350;-75
2022/09/11 06:25:38;;;;;;;18.33;9.88;;;;;;;14.54;73.41;92998.81;2051610;70;20769;-74
2022/09/11 06:28:04;;;;;;;5.63;3.47;;;;;;;14.32;73.17;92991.97;2042144;70;20190;-74
2022/09/11 06:30:30;;;;;;;5.15;2.00;;;;;;;14.11;75.04;92993.75;2039423;70;20205;-74
2022/09/11 06:32:56;;;;;;;2.63;1.80;;;;;;;14.40;74.31;93000.88;2040852;70;20150;-73
2022/09/11 06:35:22;;;;;;;3.08;1.60;;;;;;;14.44;75.48;93001.09;2042721;70;20154;-74
2022/09/11 06:37:49;;;;;;;2.65;1.90;;;;;;;14.46;74.06;92990.59;2045971;70;20201;-72
2022/09/11 06:40:16;;;;;;;3.20;1.90;;;;;;;14.55;72.75;92994.59;2047044;70;20160;-73
2022/09/11 06:42:42;;;;;;;5.05;2.47;;;;;;;14.60;74.68;92987.03;2048707;70;20165;-74
2022/09/11 06:45:09;;;;;;;3.83;2.28;;;;;;;14.66;74.26;92987.34;2047038;70;20206;-74
2022/09/11 06:47:34;;;;;;;5.80;2.58;;;;;;;14.60;75.06;92984.19;2053567;70;20158;-74
2022/09/11 06:50:00;;;;;;;3.90;2.15;;;;;;;14.74;71.81;92977.13;2048615;70;20605;-74
2022/09/11 06:52:41;;;;;;;4.15;2.13;;;;;;;14.59;73.78;92977.81;2046296;70;20146;-75
2022/09/11 06:55:19;;;;;;;2.78;1.77;;;;;;;14.70;72.59;92982.59;2050723;70;20165;-74
2022/09/11 06:57:52;;;;;;;3.63;1.60;;;;;;;14.74;73.12;92977.13;2050883;70;20166;-74
2022/09/11 07:00:22;;;;;;;2.65;1.33;;;;;;;14.86;70.33;92990.47;2049796;70;20658;-74
2022/09/11 07:02:51;;;;;;;2.70;1.42;;;;;;;14.87;72.83;92974.91;2049616;70;20202;-75
2022/09/11 07:05:18;;;;;;;2.80;1.00;;;;;;;15.03;70.69;92986.31;2050776;70;20150;-75
2022/09/11 07:07:49;;;;;;;2.78;1.23;;;;;;;15.06;71.49;92991.44;2050793;70;20177;-75
2022/09/11 07:10:16;;;;;;;2.50;1.30;;;;;;;14.97;72.28;92993.16;2049816;70;20169;-75
2022/09/11 07:12:41;;;;;;;2.88;1.38;;;;;;;15.28;70.73;92991.81;2050307;70;20147;-75
2022/09/11 07:15:08;;;;;;;3.55;1.38;;;;;;;15.32;70.65;92997.66;2050718;70;20139;-76
2022/09/11 07:17:35;;;;;;;2.10;1.30;;;;;;;15.23;70.84;92992.97;2050217;70;20216;-75
2022/09/11 07:20:02;;;;;;;1.42;1.20;;;;;;;15.35;69.33;93002.09;2047474;70;20154;-76
2022/09/11 07:22:32;;;;;;;2.88;1.60;;;;;;;15.26;70.28;92988.88;2049091;70;20597;-73
2022/09/11 07:24:59;;;;;;;2.13;1.70;;;;;;;15.30;69.30;92985.47;2053004;70;20154;-75
2022/09/11 07:27:30;;;;;;;2.45;1.40;;;;;;;15.39;68.14;92973.16;2050636;70;20539;-76
2022/09/11 07:29:58;;;;;;;4.50;2.13;;;;;;;15.30;71.43;92976.97;2050708;70;20198;-76
2022/09/11 07:32:25;;;;;;;3.15;1.77;;;;;;;15.49;68.37;92971.53;2044036;70;20571;-74
2022/09/11 07:34:52;;;;;;;1.67;1.40;;;;;;;15.50;68.82;92964.50;2049690;70;20147;-76
2022/09/11 07:37:18;;;;;;;4.15;1.23;;;;;;;15.62;68.34;92966.41;2044174;70;20467;-73
2022/09/11 07:39:43;;;;;;;1.98;1.60;;;;;;;15.53;69.06;92968.13;2052237;69;20158;-74
2022/09/11 07:42:28;;;;;;;1.63;1.02;;;;;;;15.74;70.18;92976.25;2050067;70;20308;-75
2022/09/11 07:44:54;;;;;;;1.92;1.00;;;;;;;15.98;69.00;92973.78;2050665;70;20181;-75
2022/09/11 07:47:20;;;;;;;3.08;1.02;;;;;;;16.09;68.48;92986.34;2049030;70;20613;-74
2022/09/11 07:49:49;;;;;;;1.98;0.90;;;;;;;16.13;68.25;92994.34;2052896;69;20158;-74
2022/09/11 07:52:19;;;;;;;0.90;0.80;;;;;;;16.16;65.96;92990.19;2044656;70;20166;-74
2022/09/11 07:54:52;;;;;;;1.10;0.60;;;;;;;16.23;66.85;92997.63;2048933;70;20643;-74
2022/09/11 07:57:20;;;;;;;0.50;0.50;;;;;;;16.38;64.86;92999.72;2047094;70;20205;-73
2022/09/11 07:59:48;;;;;;;1.08;0.70;;;;;;;16.52;63.94;93002.44;2050743;70;20153;-74
2022/09/11 08:02:14;;;;;;;2.72;0.90;;;;;;;16.51;65.37;93012.34;2054179;70;20146;-73
2022/09/11 08:04:40;;;;;;;2.38;0.70;;;;;;;16.55;67.09;93014.63;2050124;70;20226;-73
2022/09/11 08:07:06;;;;;;;0.52;0.50;;;;;;;16.55;66.94;93020.31;2050379;70;20527;-74
2022/09/11 08:09:33;;;;;;;0.80;0.80;;;;;;;16.33;66.80;93025.75;2054433;70;20574;-74
2022/09/11 08:12:02;;;;;;;2.83;0.90;;;;;;;16.25;66.89;93032.50;2050593;70;20260;-74
2022/09/11 08:14:30;;;;;;;2.03;0.57;;;;;;;16.48;65.98;93022.88;2050145;70;20138;-74
2022/09/11 08:17:02;;;;;;;0.88;0.70;;;;;;;16.57;68.17;93031.75;2049465;70;20246;-75
2022/09/11 08:19:29;;;;;;;1.80;0.82;;;;;;;16.63;67.05;93032.03;2047319;70;20232;-74
2022/09/11 08:21:59;;;;;;;1.13;0.90;;;;;;;16.66;66.54;93033.59;2047350;70;20275;-74
2022/09/11 08:24:26;;;;;;;2.28;1.45;;;;;;;16.69;67.04;93030.19;2048603;70;20165;-74
2022/09/11 08:26:55;;;;;;;2.10;1.30;;;;;;;16.86;66.89;93034.50;2049477;70;20154;-74
2022/09/11 08:29:23;;;;;;;1.50;0.90;;;;;;;16.97;68.32;93024.28;2050439;70;20138;-74
2022/09/11 08:31:50;;;;;;;3.70;0.90;;;;;;;17.01;66.91;93030.16;2048332;70;20185;-74
2022/09/11 08:34:16;;;;;;;1.23;0.90;;;;;;;17.13;68.48;93041.28;2047296;70;20611;-74
2022/09/11 08:36:43;;;;;;;2.83;1.00;;;;;;;17.18;67.41;93040.06;2047257;70;20277;-75
2022/09/11 08:39:10;;;;;;;1.05;0.82;;;;;;;17.17;65.88;93039.34;2050623;70;20158;-74
2022/09/11 08:41:48;;;;;;;3.13;1.00;;;;;;;17.10;66.70;93048.28;2050491;70;20144;-74
2022/09/11 08:44:22;;;;;;;7.28;3.03;;;;;;;16.77;66.31;93044.78;2049089;70;20249;-74
2022/09/11 08:46:58;;;;;;;1.30;1.20;;;;;;;16.86;67.18;93045.88;2049594;70;20174;-74
2022/09/11 08:49:28;;;;;;;2.40;1.02;;;;;;;17.01;66.59;93045.09;2050038;70;20220;-74
2022/09/11 08:51:59;;;;;;;3.70;1.10;;;;;;;17.11;66.84;93046.91;2050423;70;20230;-74
2022/09/11 08:54:33;;;;;;;1.00;0.90;;;;;;;17.24;66.58;93055.31;2049282;70;20154;-74
2022/09/11 08:57:23;;;;;;;3.50;0.93;;;;;;;17.17;67.41;93058.53;2045047;70;20158;-74
2022/09/11 08:59:58;;;;;;;4.53;2.30;;;;;;;17.00;67.12;93062.81;2050557;70;20236;-73
2022/09/11 09:02:45;;;;;;;4.20;1.20;;;;;;;17.17;65.88;93072.75;2050429;70;20162;-74
2022/09/11 09:05:23;;;;;;;4.43;2.45;;;;;;;17.16;67.45;93080.56;2049914;70;20168;-76
2022/09/11 09:08:03;;;;;;;3.65;2.55;;;;;;;17.05;66.01;93095.00;2049973;70;20515;-73
2022/09/11 09:10:44;;;;;;;3.10;2.10;;;;;;;17.18;65.82;93091.28;2050394;70;20257;-74
2022/09/11 09:13:45;;;;;;;3.15;1.30;;;;;;;17.08;67.07;93097.28;2047648;70;20146;-74
2022/09/11 09:16:36;;;;;;;1.90;1.52;;;;;;;17.09;67.40;93100.84;2049802;70;20237;-74
2022/09/11 09:19:17;;;;;;;1.52;0.80;;;;;;;17.00;65.82;93100.53;2047234;70;20149;-74
2022/09/11 09:22:03;;;;;;;0.60;0.50;;;;;;;17.06;67.12;93102.16;2047243;70;20158;-74
2022/09/11 09:24:54;;;;;;;0.95;0.85;;;;;;;16.89;67.22;93101.44;2047668;70;20150;-74
2022/09/11 09:27:29;;;;;;;5.68;0.60;;;;;;;16.84;67.04;93096.97;2049861;70;20146;-75
2022/09/11 09:30:00;;;;;;;2.67;0.88;;;;;;;16.98;67.07;93097.56;2051772;70;20154;-74
2022/09/11 09:32:35;;;;;;;1.80;0.70;;;;;;;17.02;69.29;93102.72;2049696;70;20577;-73
2022/09/11 09:35:12;;;;;;;1.17;0.60;;;;;;;17.08;67.47;93102.22;2047578;70;20560;-74
2022/09/11 09:37:38;;;;;;;0.80;0.40;;;;;;;17.13;67.53;93092.50;2050450;70;20225;-75
2022/09/11 09:40:09;;;;;;;1.00;0.70;;;;;;;17.10;68.41;93091.69;2050383;70;20162;-74
2022/09/11 09:42:38;;;;;;;1.50;0.70;;;;;;;17.30;68.40;93091.06;2049509;70;20205;-74
2022/09/11 09:45:32;;;;;;;3.30;0.70;;;;;;;17.46;67.76;93088.91;2050350;70;20138;-74
2022/09/11 09:47:58;;;;;;;2.75;1.50;;;;;;;17.51;68.56;93091.28;2052024;70;20616;-74
2022/09/11 09:50:29;;;;;;;1.73;1.20;;;;;;;17.57;66.75;93092.91;2046207;70;20138;-74
2022/09/11 09:53:22;;;;;;;1.73;1.30;;;;;;;17.60;66.83;93083.09;2050474;70;20676;-74
2022/09/11 09:55:51;;;;;;;2.88;1.50;;;;;;;17.67;66.43;93090.47;2049982;70;20238;-75
2022/09/11 09:58:17;;;;;;;3.20;1.40;;;;;;;17.70;65.87;93084.22;2047988;70;20159;-76
2022/09/11 10:00:43;;;;;;;2.20;1.42;;;;;;;17.81;65.19;93078.94;2049753;70;20241;-74
2022/09/11 10:03:19;;;;;;;2.70;1.20;;;;;;;17.89;64.82;93082.84;2051958;70;20205;-73
2022/09/11 10:05:46;;;;;;;1.60;1.20;;;;;;;17.91;63.13;93082.94;2049462;70;20758;-74
2022/09/11 10:08:33;;;;;;;1.80;1.10;;;;;;;17.67;63.35;93085.50;2050605;70;20222;-74
2022/09/11 10:11:09;;;;;;;1.70;1.17;;;;;;;17.93;61.99;93073.75;2051228;70;21903;-74
2022/09/11 10:13:41;;;;;;;1.92;1.20;;;;;;;18.05;63.02;93074.22;2051491;70;20154;-74
2022/09/11 10:16:22;;;;;;;1.20;1.10;;;;;;;17.89;63.39;93076.44;2049867;70;20173;-74
2022/09/11 10:18:48;;;;;;;1.30;1.05;;;;;;;17.89;63.22;93080.00;2053652;70;20272;-75
2022/09/11 10:21:18;;;;;;;1.95;1.10;;;;;;;17.89;63.44;93077.16;2049114;70;21178;-74
2022/09/11 10:23:57;;;;;;;2.45;1.00;;;;;;;17.75;63.13;93080.19;2048679;70;20149;-75
2022/09/11 10:26:25;;;;;;;1.85;1.17;;;;;;;17.85;64.18;93067.72;2047666;70;20218;-74
2022/09/11 10:28:59;;;;;;;1.90;1.30;;;;;;;17.89;64.27;93074.31;2050090;70;20166;-74
2022/09/11 10:31:25;;;;;;;1.73;1.10;;;;;;;17.66;63.08;93081.19;2049548;70;20230;-75
2022/09/11 10:33:59;;;;;;;2.30;1.10;;;;;;;17.66;62.40;93083.31;2050941;70;20162;-74
2022/09/11 10:36:29;;;;;;;1.90;1.40;;;;;;;17.38;64.25;93082.88;2049998;70;20169;-75
2022/09/11 10:38:57;;;;;;;2.40;1.88;;;;;;;17.28;65.45;93086.78;2050528;70;20601;-75
2022/09/11 10:41:27;;;;;;;2.78;1.60;;;;;;;17.70;65.05;93092.75;2050499;70;20233;-75
2022/09/11 10:43:54;;;;;;;1.80;1.20;;;;;;;17.69;63.19;93099.13;2048661;70;20159;-74
2022/09/11 10:46:24;;;;;;;3.60;1.35;;;;;;;17.84;63.91;93094.75;2049476;70;20150;-75
2022/09/11 10:48:56;;;;;;;4.30;1.13;;;;;;;17.96;62.26;93089.50;2049827;70;20246;-74
2022/09/11 10:51:24;;;;;;;2.73;1.47;;;;;;;18.13;63.86;93085.94;2049834;70;20154;-74
2022/09/11 10:54:05;;;;;;;1.40;1.10;;;;;;;18.34;61.90;93083.88;2049388;70;20597;-74
2022/09/11 10:56:44;;;;;;;4.00;1.20;;;;;;;18.61;60.40;93082.75;2053191;70;20154;-75
2022/09/11 10:59:16;;;;;;;1.83;1.00;;;;;;;19.00;60.23;93068.50;2047641;70;20178;-75
2022/09/11 11:01:42;;;;;;;1.27;0.90;;;;;;;19.59;59.77;93075.50;2050674;70;20162;-75
2022/09/11 11:04:11;;;;;;;2.00;1.05;;;;;;;19.47;58.72;93072.22;2049975;70;20569;-74
2022/09/11 11:06:39;;;;;;;1.42;1.00;;;;;;;19.44;58.63;93071.44;2050143;70;20161;-74
2022/09/11 11:09:24;;;;;;;3.30;2.40;;;;;;;19.42;59.00;93059.22;2052784;70;20181;-74
2022/09/11 11:12:22;;;;;;;2.13;1.70;;;;;;;20.05;58.04;93062.03;2050061;70;20685;-74
2022/09/11 11:15:15;;;;;;;2.28;1.45;;;;;;;20.53;56.42;93056.38;2047151;70;20610;-74
2022/09/11 11:18:12;;;;;;;2.38;1.40;;;;;;;21.04;55.48;93052.09;2053951;70;20153;-73
2022/09/11 11:20:59;;;;;;;2.60;1.70;;;;;;;20.71;56.01;93044.72;2051190;70;20139;-74
2022/09/11 11:23:43;;;;;;;3.00;1.45;;;;;;;20.48;55.11;93042.59;2046422;70;20170;-72
2022/09/11 11:26:35;;;;;;;1.90;0.70;;;;;;;20.44;54.44;93042.47;2049478;70;20293;-73
2022/09/11 11:29:17;;;;;;;1.58;0.90;;;;;;;20.95;53.85;93047.53;2051544;70;20142;-73
2022/09/11 11:32:04;;;;;;;0.75;0.60;;;;;;;19.69;54.10;93046.56;2052359;70;20157;-75
2022/09/11 11:34:45;;;;;;;2.63;0.70;;;;;;;19.53;54.84;93044.63;2047557;70;20150;-74
2022/09/11 11:37:11;;;;;;;0.85;0.75;;;;;;;19.22;55.68;93051.44;2049840;69;20551;-74
2022/09/11 11:39:36;;;;;;;2.13;0.80;;;;;;;18.73;57.81;93055.41;2047982;70;20637;-73
2022/09/11 11:42:27;;;;;;;2.60;0.70;;;;;;;18.68;59.08;93056.63;2052821;69;20166;-74
2022/09/11 11:44:59;;;;;;;1.80;1.00;;;;;;;18.79;58.28;93054.94;2048986;70;20142;-74
2022/09/11 11:47:31;;;;;;;1.95;0.90;;;;;;;19.24;58.32;93053.63;2049607;70;20198;-74
2022/09/11 11:50:13;;;;;;;4.40;1.20;;;;;;;18.78;59.01;93057.06;2047440;70;20232;-73
2022/09/11 11:52:57;;;;;;;1.88;1.20;;;;;;;19.28;59.19;93059.47;2048454;70;20513;-73
2022/09/11 11:55:42;;;;;;;1.00;0.90;;;;;;;19.27;59.29;93066.56;2049912;70;20204;-73
2022/09/11 11:58:42;;;;;;;4.05;0.93;;;;;;;19.95;56.19;93072.41;2046826;70;20257;-77
2022/09/11 12:01:22;;;;;;;4.22;1.25;;;;;;;19.08;58.10;93078.75;2048184;70;20226;-74